sensor_id;sensor_type;location;lat;lon;timestamp;pressure;altitude;pressure_sealevel;temperature;humidity
69749;BME280;57019;52.354;6.584;2022-10-19T00:01:16;102923.38;;;21.00;53.82
69749;BME280;57019;52.354;6.584;2022-10-19T00:03:43;102922.69;;;20.98;54.10
69749;BME280;57019;52.354;6.584;2022-10-19T00:06:11;102926.28;;;20.97;53.91
69749;BME280;57019;52.354;6.584;2022-10-19T00:08:37;102929.88;;;20.96;53.68
69749;BME280;57019;52.354;6.584;2022-10-19T00:11:02;102929.06;;;20.95;53.78
69749;BME280;57019;52.354;6.584;2022-10-19T00:13:27;102924.91;;;20.93;53.72
69749;BME280;57019;52.354;6.584;2022-10-19T00:15:53;102911.06;;;20.91;53.46
69749;BME280;57019;52.354;6.584;2022-10-19T00:18:18;102924.19;;;20.91;53.50
69749;BME280;57019;52.354;6.584;2022-10-19T00:20:44;102922.56;;;20.90;53.59
69749;BME280;57019;52.354;6.584;2022-10-19T00:23:09;102928.78;;;20.89;53.57
69749;BME280;57019;52.354;6.584;2022-10-19T00:25:34;102923.66;;;20.87;53.48
69749;BME280;57019;52.354;6.584;2022-10-19T00:28:02;102917.56;;;20.87;53.44
69749;BME280;57019;52.354;6.584;2022-10-19T00:30:28;102916.75;;;20.86;53.51
69749;BME280;57019;52.354;6.584;2022-10-19T00:32:53;102914.38;;;20.83;53.44
69749;BME280;57019;52.354;6.584;2022-10-19T00:35:18;102915.22;;;20.83;53.44
69749;BME280;57019;52.354;6.584;2022-10-19T00:37:44;102919.63;;;20.83;53.42
69749;BME280;57019;52.354;6.584;2022-10-19T00:40:09;102906.66;;;20.81;53.52
69749;BME280;57019;52.354;6.584;2022-10-19T00:42:35;102904.97;;;20.80;53.50
69749;BME280;57019;52.354;6.584;2022-10-19T00:45:05;102906.75;;;20.80;53.21
69749;BME280;57019;52.354;6.584;2022-10-19T00:47:31;102915.63;;;20.79;53.31
69749;BME280;57019;52.354;6.584;2022-10-19T00:49:57;102914.78;;;20.78;53.31
69749;BME280;57019;52.354;6.584;2022-10-19T00:52:24;102916.72;;;20.76;53.25
69749;BME280;57019;52.354;6.584;2022-10-19T00:54:51;102929.00;;;20.76;53.01
69749;BME280;57019;52.354;6.584;2022-10-19T00:57:18;102922.94;;;20.75;53.16
69749;BME280;57019;52.354;6.584;2022-10-19T00:59:45;102916.88;;;20.75;53.16
69749;BME280;57019;52.354;6.584;2022-10-19T01:02:11;102917.81;;;20.74;52.88
69749;BME280;57019;52.354;6.584;2022-10-19T01:04:39;102915.34;;;20.72;53.04
69749;BME280;57019;52.354;6.584;2022-10-19T01:07:06;102916.28;;;20.71;53.14
69749;BME280;57019;52.354;6.584;2022-10-19T01:09:32;102910.34;;;20.69;53.18
69749;BME280;57019;52.354;6.584;2022-10-19T01:17:33;102902.56;;;20.67;52.82
69749;BME280;57019;52.354;6.584;2022-10-19T01:31:44;102899.53;;;20.62;52.83
69749;BME280;57019;52.354;6.584;2022-10-19T01:42:14;102893.84;;;20.57;52.59
69749;BME280;57019;52.354;6.584;2022-10-19T01:45:12;102893.84;;;20.57;52.48
69749;BME280;57019;52.354;6.584;2022-10-19T01:47:44;102893.03;;;20.57;52.51
69749;BME280;57019;52.354;6.584;2022-10-19T01:50:25;102898.38;;;20.55;52.69
69749;BME280;57019;52.354;6.584;2022-10-19T01:52:53;102894.94;;;20.55;52.47
69749;BME280;57019;52.354;6.584;2022-10-19T01:55:20;102895.09;;;20.53;52.44
69749;BME280;57019;52.354;6.584;2022-10-19T01:57:52;102894.25;;;20.53;52.36
69749;BME280;57019;52.354;6.584;2022-10-19T02:00:20;102891.63;;;20.53;52.26
69749;BME280;57019;52.354;6.584;2022-10-19T02:02:49;102889.13;;;20.51;52.27
69749;BME280;57019;52.354;6.584;2022-10-19T02:05:16;102890.94;;;20.50;52.30
69749;BME280;57019;52.354;6.584;2022-10-19T02:07:47;102888.31;;;20.50;52.54
69749;BME280;57019;52.354;6.584;2022-10-19T02:10:13;102898.13;;;20.48;52.11
69749;BME280;57019;52.354;6.584;2022-10-19T02:12:40;102890.25;;;20.48;52.35
69749;BME280;57019;52.354;6.584;2022-10-19T02:15:09;102887.72;;;20.47;52.34
69749;BME280;57019;52.354;6.584;2022-10-19T02:17:39;102887.72;;;20.47;51.98
69749;BME280;57019;52.354;6.584;2022-10-19T02:20:06;102886.09;;;20.46;52.00
69749;BME280;57019;52.354;6.584;2022-10-19T02:22:32;102890.50;;;20.45;52.25
69749;BME280;57019;52.354;6.584;2022-10-19T02:24:58;102894.94;;;20.45;52.16
69749;BME280;57019;52.354;6.584;2022-10-19T02:27:23;102888.84;;;20.44;52.17
69749;BME280;57019;52.354;6.584;2022-10-19T02:29:49;102885.53;;;20.42;52.01
69749;BME280;57019;52.354;6.584;2022-10-19T02:32:15;102877.66;;;20.42;51.96
69749;BME280;57019;52.354;6.584;2022-10-19T02:34:40;102888.16;;;20.42;52.17
69749;BME280;57019;52.354;6.584;2022-10-19T02:37:06;102875.97;;;20.41;51.74
69749;BME280;57019;52.354;6.584;2022-10-19T02:39:32;102876.13;;;20.40;52.02
69749;BME280;57019;52.354;6.584;2022-10-19T02:42:16;102880.56;;;20.39;51.96
69749;BME280;57019;52.354;6.584;2022-10-19T02:45:23;102879.69;;;20.39;52.11
69749;BME280;57019;52.354;6.584;2022-10-19T02:47:53;102873.63;;;20.38;51.77
69749;BME280;57019;52.354;6.584;2022-10-19T02:50:20;102869.34;;;20.37;51.77
69749;BME280;57019;52.354;6.584;2022-10-19T02:52:46;102866.84;;;20.36;52.00
69749;BME280;57019;52.354;6.584;2022-10-19T02:55:11;102867.00;;;20.34;51.75
69749;BME280;57019;52.354;6.584;2022-10-19T02:57:37;102875.56;;;20.36;51.87
69749;BME280;57019;52.354;6.584;2022-10-19T03:00:05;102872.25;;;20.34;51.70
69749;BME280;57019;52.354;6.584;2022-10-19T03:02:31;102875.81;;;20.33;51.67
69749;BME280;57019;52.354;6.584;2022-10-19T03:04:56;102879.44;;;20.32;51.73
69749;BME280;57019;52.354;6.584;2022-10-19T03:07:22;102874.19;;;20.32;51.71
69749;BME280;57019;52.354;6.584;2022-10-19T03:09:47;102868.22;;;20.30;51.49
69749;BME280;57019;52.354;6.584;2022-10-19T03:12:13;102871.66;;;20.30;51.67
69749;BME280;57019;52.354;6.584;2022-10-19T03:14:39;102860.50;;;20.28;51.64
69749;BME280;57019;52.354;6.584;2022-10-19T03:17:04;102875.41;;;20.28;51.60
69749;BME280;57019;52.354;6.584;2022-10-19T03:19:30;102876.38;;;20.27;51.50
69749;BME280;57019;52.354;6.584;2022-10-19T03:21:56;102876.38;;;20.27;51.44
69749;BME280;57019;52.354;6.584;2022-10-19T03:24:21;102879.94;;;20.26;51.58
69749;BME280;57019;52.354;6.584;2022-10-19T03:26:46;102871.25;;;20.25;51.58
69749;BME280;57019;52.354;6.584;2022-10-19T03:29:11;102874.03;;;20.24;51.45
69749;BME280;57019;52.354;6.584;2022-10-19T03:31:37;102875.94;;;20.22;51.48
69749;BME280;57019;52.354;6.584;2022-10-19T03:34:02;102873.31;;;20.22;51.48
69749;BME280;57019;52.354;6.584;2022-10-19T03:39:14;102876.06;;;20.20;51.63
69749;BME280;57019;52.354;6.584;2022-10-19T03:41:40;102879.66;;;20.19;51.25
69749;BME280;57019;52.354;6.584;2022-10-19T03:44:07;102890.13;;;20.19;51.63
69749;BME280;57019;52.354;6.584;2022-10-19T03:46:34;102885.84;;;20.18;51.36
69749;BME280;57019;52.354;6.584;2022-10-19T03:48:59;102888.47;;;20.18;51.56
69749;BME280;57019;52.354;6.584;2022-10-19T03:51:27;102886.84;;;20.17;51.45
69749;BME280;57019;52.354;6.584;2022-10-19T03:53:54;102891.22;;;20.16;51.60
69749;BME280;57019;52.354;6.584;2022-10-19T03:56:23;102891.22;;;20.16;51.37
69749;BME280;57019;52.354;6.584;2022-10-19T03:58:50;102880.72;;;20.16;51.33
69749;BME280;57019;52.354;6.584;2022-10-19T04:01:19;102880.06;;;20.14;51.62
69749;BME280;57019;52.354;6.584;2022-10-19T04:03:44;102879.19;;;20.14;51.36
69749;BME280;57019;52.354;6.584;2022-10-19T04:06:13;102875.75;;;20.13;51.25
69749;BME280;57019;52.354;6.584;2022-10-19T04:08:39;102879.34;;;20.12;51.51
69749;BME280;57019;52.354;6.584;2022-10-19T04:11:07;102872.31;;;20.13;51.32
69749;BME280;57019;52.354;6.584;2022-10-19T04:13:33;102868.84;;;20.12;51.24
69749;BME280;57019;52.354;6.584;2022-10-19T04:15:59;102877.69;;;20.11;51.59
69749;BME280;57019;52.354;6.584;2022-10-19T04:18:25;102873.41;;;20.10;51.26
69749;BME280;57019;52.354;6.584;2022-10-19T04:21:01;102877.94;;;20.08;51.37
69749;BME280;57019;52.354;6.584;2022-10-19T04:23:29;102875.31;;;20.08;51.50
69749;BME280;57019;52.354;6.584;2022-10-19T04:25:59;102871.88;;;20.08;51.46
69749;BME280;57019;52.354;6.584;2022-10-19T04:28:25;102875.31;;;20.08;51.23
69749;BME280;57019;52.354;6.584;2022-10-19T04:30:50;102867.59;;;20.07;51.38
69749;BME280;57019;52.354;6.584;2022-10-19T04:33:15;102864.16;;;20.06;51.20
69749;BME280;57019;52.354;6.584;2022-10-19T04:35:41;102871.06;;;20.07;51.29
69749;BME280;57019;52.354;6.584;2022-10-19T04:38:06;102857.94;;;20.07;51.55
69749;BME280;57019;52.354;6.584;2022-10-19T04:40:34;102858.34;;;20.12;51.21
69749;BME280;57019;52.354;6.584;2022-10-19T04:42:59;102852.06;;;20.25;51.27
69749;BME280;57019;52.354;6.584;2022-10-19T04:45:24;102853.22;;;20.42;50.94
69749;BME280;57019;52.354;6.584;2022-10-19T04:47:50;102840.25;;;20.60;50.44
69749;BME280;57019;52.354;6.584;2022-10-19T04:50:15;102856.78;;;20.81;50.12
69749;BME280;57019;52.354;6.584;2022-10-19T04:52:43;102852.47;;;21.00;49.81
69749;BME280;57019;52.354;6.584;2022-10-19T04:55:09;102854.94;;;21.11;49.39
69749;BME280;57019;52.354;6.584;2022-10-19T04:57:34;102840.56;;;21.15;49.40
69749;BME280;57019;52.354;6.584;2022-10-19T04:59:59;102838.66;;;21.17;49.05
69749;BME280;57019;52.354;6.584;2022-10-19T05:02:25;102838.66;;;21.17;49.23
69749;BME280;57019;52.354;6.584;2022-10-19T05:04:50;102835.06;;;21.18;49.05
69749;BME280;57019;52.354;6.584;2022-10-19T05:07:15;102833.41;;;21.17;48.94
69749;BME280;57019;52.354;6.584;2022-10-19T05:09:40;102827.06;;;21.10;49.28
69749;BME280;57019;52.354;6.584;2022-10-19T05:12:06;102831.59;;;21.08;49.16
69749;BME280;57019;52.354;6.584;2022-10-19T05:14:32;102829.25;;;21.05;49.45
69749;BME280;57019;52.354;6.584;2022-10-19T05:16:57;102826.34;;;20.98;49.48
69749;BME280;57019;52.354;6.584;2022-10-19T05:19:23;102832.72;;;20.96;49.65
69749;BME280;57019;52.354;6.584;2022-10-19T05:21:48;102833.00;;;20.93;49.44
69749;BME280;57019;52.354;6.584;2022-10-19T05:24:13;102822.88;;;20.88;49.71
69749;BME280;57019;52.354;6.584;2022-10-19T05:26:39;102827.59;;;20.84;49.48
69749;BME280;57019;52.354;6.584;2022-10-19T05:29:04;102830.50;;;20.81;49.80
69749;BME280;57019;52.354;6.584;2022-10-19T05:31:31;102832.44;;;20.79;49.92
69749;BME280;57019;52.354;6.584;2022-10-19T05:33:58;102829.13;;;20.77;49.93
69749;BME280;57019;52.354;6.584;2022-10-19T05:36:26;102833.97;;;20.72;49.68
69749;BME280;57019;52.354;6.584;2022-10-19T05:38:56;102835.47;;;20.75;49.79
69749;BME280;57019;52.354;6.584;2022-10-19T05:41:23;102836.28;;;20.75;49.84
69749;BME280;57019;52.354;6.584;2022-10-19T05:44:12;102835.06;;;20.79;49.58
69749;BME280;57019;52.354;6.584;2022-10-19T05:46:38;102833.13;;;20.81;49.64
69749;BME280;57019;52.354;6.584;2022-10-19T05:49:03;102832.72;;;20.86;49.35
69749;BME280;57019;52.354;6.584;2022-10-19T05:51:28;102832.16;;;20.92;49.49
69749;BME280;57019;52.354;6.584;2022-10-19T05:53:54;102843.22;;;20.96;49.15
69749;BME280;57019;52.354;6.584;2022-10-19T05:56:23;102832.03;;;20.94;49.28
69749;BME280;57019;52.354;6.584;2022-10-19T05:58:50;102838.09;;;20.94;49.27
69749;BME280;57019;52.354;6.584;2022-10-19T06:01:17;102833.13;;;20.91;49.33
69749;BME280;57019;52.354;6.584;2022-10-19T06:03:46;102848.03;;;20.91;49.08
69749;BME280;57019;52.354;6.584;2022-10-19T06:06:14;102841.41;;;20.87;49.43
69749;BME280;57019;52.354;6.584;2022-10-19T06:08:40;102852.63;;;20.79;49.57
69749;BME280;57019;52.354;6.584;2022-10-19T06:11:24;102861.44;;;20.78;49.47
69749;BME280;57019;52.354;6.584;2022-10-19T06:13:52;102863.50;;;20.74;49.34
69749;BME280;57019;52.354;6.584;2022-10-19T06:16:18;102871.81;;;20.70;49.18
69749;BME280;57019;52.354;6.584;2022-10-19T06:18:44;102878.72;;;20.71;49.17
69749;BME280;57019;52.354;6.584;2022-10-19T06:21:13;102877.19;;;20.68;49.00
69749;BME280;57019;52.354;6.584;2022-10-19T06:23:39;102873.53;;;20.59;49.36
69749;BME280;57019;52.354;6.584;2022-10-19T06:26:08;102872.56;;;20.60;49.42
69749;BME280;57019;52.354;6.584;2022-10-19T06:28:35;102871.75;;;20.60;49.10
69749;BME280;57019;52.354;6.584;2022-10-19T06:31:01;102877.44;;;20.65;49.57
69749;BME280;57019;52.354;6.584;2022-10-19T06:33:27;102874.44;;;20.70;50.17
69749;BME280;57019;52.354;6.584;2022-10-19T06:35:52;102866.41;;;20.71;49.92
69749;BME280;57019;52.354;6.584;2022-10-19T06:38:18;102872.63;;;20.70;50.04
69749;BME280;57019;52.354;6.584;2022-10-19T06:40:43;102875.06;;;20.62;50.18
69749;BME280;57019;52.354;6.584;2022-10-19T06:43:09;102875.34;;;20.59;49.85
69749;BME280;57019;52.354;6.584;2022-10-19T06:45:36;102877.66;;;20.52;49.74
69749;BME280;57019;52.354;6.584;2022-10-19T06:48:02;102870.91;;;20.49;49.55
69749;BME280;57019;52.354;6.584;2022-10-19T06:50:27;102879.19;;;20.45;49.98
69749;BME280;57019;52.354;6.584;2022-10-19T06:52:52;102893.53;;;20.41;49.39
69749;BME280;57019;52.354;6.584;2022-10-19T06:55:18;102889.81;;;20.43;49.62
69749;BME280;57019;52.354;6.584;2022-10-19T06:57:43;102893.56;;;20.50;49.51
69749;BME280;57019;52.354;6.584;2022-10-19T07:00:09;102888.59;;;20.57;49.25
69749;BME280;57019;52.354;6.584;2022-10-19T07:02:35;102882.25;;;20.60;49.54
69749;BME280;57019;52.354;6.584;2022-10-19T07:05:00;102886.56;;;20.61;49.13
69749;BME280;57019;52.354;6.584;2022-10-19T07:07:26;102892.47;;;20.63;49.51
69749;BME280;57019;52.354;6.584;2022-10-19T07:09:51;102893.56;;;20.60;49.28
69749;BME280;57019;52.354;6.584;2022-10-19T07:12:17;102893.03;;;20.57;49.54
69749;BME280;57019;52.354;6.584;2022-10-19T07:14:43;102888.31;;;20.50;49.70
69749;BME280;57019;52.354;6.584;2022-10-19T07:17:10;102881.25;;;20.51;49.94
69749;BME280;57019;52.354;6.584;2022-10-19T07:19:35;102885.00;;;20.48;49.83
69749;BME280;57019;52.354;6.584;2022-10-19T07:22:01;102902.66;;;20.46;49.84
69749;BME280;57019;52.354;6.584;2022-10-19T07:24:26;102907.09;;;20.46;49.94
69749;BME280;57019;52.354;6.584;2022-10-19T07:26:52;102908.63;;;20.48;50.03
69749;BME280;57019;52.354;6.584;2022-10-19T07:29:17;102900.16;;;20.45;50.07
69749;BME280;57019;52.354;6.584;2022-10-19T07:31:42;102900.47;;;20.51;51.74
69749;BME280;57019;52.354;6.584;2022-10-19T07:34:12;102893.56;;;20.50;50.97
69749;BME280;57019;52.354;6.584;2022-10-19T07:36:38;102907.38;;;20.53;50.82
69749;BME280;57019;52.354;6.584;2022-10-19T07:39:08;102899.38;;;20.54;50.65
69749;BME280;57019;52.354;6.584;2022-10-19T07:41:34;102898.53;;;20.54;50.75
69749;BME280;57019;52.354;6.584;2022-10-19T07:44:00;102896.72;;;20.44;51.16
69749;BME280;57019;52.354;6.584;2022-10-19T07:46:28;102900.59;;;20.40;51.14
69749;BME280;57019;52.354;6.584;2022-10-19T07:48:57;102900.44;;;20.42;50.88
69749;BME280;57019;52.354;6.584;2022-10-19T07:51:23;102895.72;;;20.36;51.48
69749;BME280;57019;52.354;6.584;2022-10-19T07:53:48;102889.34;;;20.28;51.42
69749;BME280;57019;52.354;6.584;2022-10-19T07:56:19;102894.31;;;20.31;51.76
69749;BME280;57019;52.354;6.584;2022-10-19T07:58:45;102890.88;;;20.31;51.75
69749;BME280;57019;52.354;6.584;2022-10-19T08:01:13;102887.31;;;20.32;51.88
69749;BME280;57019;52.354;6.584;2022-10-19T08:03:38;102884.13;;;20.38;52.11
69749;BME280;57019;52.354;6.584;2022-10-19T08:06:12;102891.34;;;20.46;52.36
69749;BME280;57019;52.354;6.584;2022-10-19T08:08:38;102887.50;;;20.50;52.24
69749;BME280;57019;52.354;6.584;2022-10-19T08:13:32;102880.44;;;20.60;52.02
69749;BME280;57019;52.354;6.584;2022-10-19T08:15:58;102879.22;;;20.64;51.87
69749;BME280;57019;52.354;6.584;2022-10-19T08:18:23;102885.31;;;20.65;52.40
69749;BME280;57019;52.354;6.584;2022-10-19T08:20:48;102888.91;;;20.64;52.56
69749;BME280;57019;52.354;6.584;2022-10-19T08:23:14;102891.66;;;20.62;52.21
69749;BME280;57019;52.354;6.584;2022-10-19T08:25:39;102883.94;;;20.61;51.92
69749;BME280;57019;52.354;6.584;2022-10-19T08:28:05;102875.06;;;20.62;51.94
69749;BME280;57019;52.354;6.584;2022-10-19T08:30:30;102885.84;;;20.59;52.14
69749;BME280;57019;52.354;6.584;2022-10-19T08:32:55;102884.44;;;20.55;52.43
69749;BME280;57019;52.354;6.584;2022-10-19T08:35:21;102879.19;;;20.55;52.26
69749;BME280;57019;52.354;6.584;2022-10-19T08:37:46;102876.44;;;20.56;52.54
69749;BME280;57019;52.354;6.584;2022-10-19T08:40:23;102880.03;;;20.55;52.95
69749;BME280;57019;52.354;6.584;2022-10-19T08:48:28;102887.66;;;20.58;53.18
69749;BME280;57019;52.354;6.584;2022-10-19T08:50:55;102884.88;;;20.60;52.68
69749;BME280;57019;52.354;6.584;2022-10-19T08:56:17;102885.38;;;20.84;53.08
69749;BME280;57019;52.354;6.584;2022-10-19T09:01:13;102886.75;;;20.89;52.68
69749;BME280;57019;52.354;6.584;2022-10-19T09:08:44;102878.16;;;20.87;53.14
69749;BME280;57019;52.354;6.584;2022-10-19T09:11:10;102873.19;;;20.83;52.98
69749;BME280;57019;52.354;6.584;2022-10-19T09:13:40;102866.03;;;20.86;53.33
69749;BME280;57019;52.354;6.584;2022-10-19T09:16:13;102869.91;;;20.81;53.35
69749;BME280;57019;52.354;6.584;2022-10-19T09:18:40;102865.75;;;20.79;53.28
69749;BME280;57019;52.354;6.584;2022-10-19T09:21:19;102871.25;;;20.76;53.16
69749;BME280;57019;52.354;6.584;2022-10-19T09:24:01;102871.53;;;20.73;53.02
69749;BME280;57019;52.354;6.584;2022-10-19T09:26:31;102867.94;;;20.74;52.62
69749;BME280;57019;52.354;6.584;2022-10-19T09:29:10;102863.19;;;20.67;52.83
69749;BME280;57019;52.354;6.584;2022-10-19T09:31:40;102873.47;;;20.71;52.91
69749;BME280;57019;52.354;6.584;2022-10-19T09:34:34;102866.56;;;20.70;52.45
69749;BME280;57019;52.354;6.584;2022-10-19T09:37:01;102857.00;;;20.68;52.56
69749;BME280;57019;52.354;6.584;2022-10-19T09:39:28;102862.22;;;20.59;51.96
69749;BME280;57019;52.354;6.584;2022-10-19T09:41:59;102861.81;;;20.63;52.70
69749;BME280;57019;52.354;6.584;2022-10-19T09:44:26;102849.00;;;20.70;53.02
69749;BME280;57019;52.354;6.584;2022-10-19T09:47:04;102859.66;;;20.78;52.99
69749;BME280;57019;52.354;6.584;2022-10-19T09:49:42;102851.91;;;20.87;53.66
69749;BME280;57019;52.354;6.584;2022-10-19T09:52:36;102847.22;;;20.80;53.01
69749;BME280;57019;52.354;6.584;2022-10-19T09:57:47;102840.31;;;20.79;54.20
69749;BME280;57019;52.354;6.584;2022-10-19T10:00:25;102840.16;;;20.71;53.08
69749;BME280;57019;52.354;6.584;2022-10-19T10:02:55;102835.56;;;20.63;53.40
69749;BME280;57019;52.354;6.584;2022-10-19T10:05:34;102840.81;;;20.63;53.17
69749;BME280;57019;52.354;6.584;2022-10-19T10:08:00;102838.59;;;20.59;53.23
69749;BME280;57019;52.354;6.584;2022-10-19T10:10:34;102839.56;;;20.58;53.29
69749;BME280;57019;52.354;6.584;2022-10-19T10:13:02;102832.66;;;20.57;53.29
69749;BME280;57019;52.354;6.584;2022-10-19T10:15:35;102828.25;;;20.57;53.42
69749;BME280;57019;52.354;6.584;2022-10-19T10:18:11;102826.72;;;20.55;53.12
69749;BME280;57019;52.354;6.584;2022-10-19T10:20:55;102818.56;;;20.58;53.16
69749;BME280;57019;52.354;6.584;2022-10-19T10:23:32;102815.94;;;20.58;52.85
69749;BME280;57019;52.354;6.584;2022-10-19T10:26:18;102812.34;;;20.59;52.91
69749;BME280;57019;52.354;6.584;2022-10-19T10:28:48;102808.91;;;20.58;52.82
69749;BME280;57019;52.354;6.584;2022-10-19T10:31:18;102834.75;;;20.63;53.01
69749;BME280;57019;52.354;6.584;2022-10-19T10:33:52;102820.09;;;20.60;52.95
69749;BME280;57019;52.354;6.584;2022-10-19T10:36:22;102819.56;;;20.57;53.29
69749;BME280;57019;52.354;6.584;2022-10-19T10:39:00;102819.28;;;20.60;53.43
69749;BME280;57019;52.354;6.584;2022-10-19T10:41:27;102812.34;;;20.59;53.27
69749;BME280;57019;52.354;6.584;2022-10-19T10:43:54;102813.31;;;20.58;53.30
69749;BME280;57019;52.354;6.584;2022-10-19T10:46:34;102807.38;;;20.56;53.35
69749;BME280;57019;52.354;6.584;2022-10-19T10:49:06;102809.88;;;20.57;53.59
69749;BME280;57019;52.354;6.584;2022-10-19T10:51:42;102815.13;;;20.67;53.64
69749;BME280;57019;52.354;6.584;2022-10-19T10:54:28;102810.75;;;20.77;54.14
69749;BME280;57019;52.354;6.584;2022-10-19T10:57:18;102798.31;;;20.79;53.66
69749;BME280;57019;52.354;6.584;2022-10-19T11:00:05;102792.50;;;20.86;53.54
69749;BME280;57019;52.354;6.584;2022-10-19T11:07:42;102776.31;;;21.00;53.72
69749;BME280;57019;52.354;6.584;2022-10-19T11:10:17;102767.31;;;21.02;53.75
69749;BME280;57019;52.354;6.584;2022-10-19T11:12:48;102762.91;;;21.03;53.82
69749;BME280;57019;52.354;6.584;2022-10-19T11:15:21;102766.50;;;21.02;54.13
69749;BME280;57019;52.354;6.584;2022-10-19T11:17:54;102767.31;;;21.02;54.14
69749;BME280;57019;52.354;6.584;2022-10-19T11:20:22;102761.25;;;21.02;54.43
69749;BME280;57019;52.354;6.584;2022-10-19T11:31:00;102748.56;;;20.88;54.56
69749;BME280;57019;52.354;6.584;2022-10-19T11:36:37;102748.53;;;20.97;54.42
69749;BME280;57019;52.354;6.584;2022-10-19T11:39:20;102740.94;;;20.94;54.62
69749;BME280;57019;52.354;6.584;2022-10-19T11:41:57;102741.09;;;20.93;54.43
69749;BME280;57019;52.354;6.584;2022-10-19T11:47:30;102716.91;;;20.79;54.20
69749;BME280;57019;52.354;6.584;2022-10-19T11:52:50;102717.19;;;20.76;54.45
69749;BME280;57019;52.354;6.584;2022-10-19T12:00:59;102711.50;;;20.91;54.16
69749;BME280;57019;52.354;6.584;2022-10-19T12:07:22;102702.09;;;20.98;54.01
69749;BME280;57019;52.354;6.584;2022-10-19T12:09:28;102700.00;;;21.01;54.14
69749;BME280;57019;52.354;6.584;2022-10-19T12:14:27;102690.47;;;21.10;53.88
69749;BME280;57019;52.354;6.584;2022-10-19T12:16:58;102678.00;;;21.12;53.65
69749;BME280;57019;52.354;6.584;2022-10-19T12:19:37;102676.94;;;21.05;53.90
69749;BME280;57019;52.354;6.584;2022-10-19T12:22:06;102672.34;;;21.07;53.60
69749;BME280;57019;52.354;6.584;2022-10-19T12:24:37;102675.53;;;21.11;53.87
69749;BME280;57019;52.354;6.584;2022-10-19T12:27:03;102667.09;;;21.07;54.63
69749;BME280;57019;52.354;6.584;2022-10-19T12:29:35;102653.69;;;21.10;53.60
69749;BME280;57019;52.354;6.584;2022-10-19T12:32:03;102660.56;;;21.11;53.90
69749;BME280;57019;52.354;6.584;2022-10-19T12:34:51;102653.97;;;21.07;54.06
69749;BME280;57019;52.354;6.584;2022-10-19T12:37:32;102642.78;;;21.05;54.25
69749;BME280;57019;52.354;6.584;2022-10-19T12:40:03;102649.00;;;21.04;54.10
69749;BME280;57019;52.354;6.584;2022-10-19T12:42:35;102636.31;;;20.99;54.26
69749;BME280;57019;52.354;6.584;2022-10-19T12:45:26;102624.16;;;20.98;54.20
69749;BME280;57019;52.354;6.584;2022-10-19T12:53:48;102614.09;;;21.22;55.38
69749;BME280;57019;52.354;6.584;2022-10-19T12:56:24;102609.97;;;21.19;55.97
69749;BME280;57019;52.354;6.584;2022-10-19T12:58:55;102606.56;;;21.37;56.09
69749;BME280;57019;52.354;6.584;2022-10-19T13:01:41;102595.19;;;21.36;55.92
69749;BME280;57019;52.354;6.584;2022-10-19T13:04:22;102612.22;;;21.32;55.48
69749;BME280;57019;52.354;6.584;2022-10-19T13:06:57;102599.31;;;21.21;56.24
69749;BME280;57019;52.354;6.584;2022-10-19T13:09:36;102609.91;;;21.29;56.32
69749;BME280;57019;52.354;6.584;2022-10-19T13:22:47;102562.91;;;21.26;57.02
69749;BME280;57019;52.354;6.584;2022-10-19T13:27:47;102550.59;;;21.26;56.93
69749;BME280;57019;52.354;6.584;2022-10-19T13:35:47;102541.22;;;21.24;56.57
69749;BME280;57019;52.354;6.584;2022-10-19T13:43:38;102531.78;;;21.03;56.76
69749;BME280;57019;52.354;6.584;2022-10-19T14:00:04;102521.00;;;21.06;56.29
69749;BME280;57019;52.354;6.584;2022-10-19T14:10:23;102512.13;;;21.07;56.33
69749;BME280;57019;52.354;6.584;2022-10-19T14:12:50;102505.63;;;21.11;55.93
69749;BME280;57019;52.354;6.584;2022-10-19T14:15:31;102506.00;;;21.16;55.96
69749;BME280;57019;52.354;6.584;2022-10-19T14:17:57;102505.75;;;21.10;56.06
69749;BME280;57019;52.354;6.584;2022-10-19T14:20:37;102506.31;;;21.13;56.14
69749;BME280;57019;52.354;6.584;2022-10-19T14:23:21;102498.03;;;21.08;57.22
69749;BME280;57019;52.354;6.584;2022-10-19T14:25:53;102498.72;;;21.10;56.39
69749;BME280;57019;52.354;6.584;2022-10-19T14:28:20;102494.94;;;21.13;56.66
69749;BME280;57019;52.354;6.584;2022-10-19T14:31:01;102499.38;;;21.12;56.78
69749;BME280;57019;52.354;6.584;2022-10-19T14:33:28;102487.63;;;21.16;56.56
69749;BME280;57019;52.354;6.584;2022-10-19T14:35:56;102485.84;;;21.35;57.98
69749;BME280;57019;52.354;6.584;2022-10-19T14:38:33;102481.72;;;21.50;59.18
69749;BME280;57019;52.354;6.584;2022-10-19T14:41:00;102486.97;;;21.50;57.40
69749;BME280;57019;52.354;6.584;2022-10-19T14:43:28;102492.13;;;21.24;57.39
69749;BME280;57019;52.354;6.584;2022-10-19T14:46:14;102491.50;;;21.12;57.48
69749;BME280;57019;52.354;6.584;2022-10-19T14:48:45;102485.22;;;21.23;57.56
69749;BME280;57019;52.354;6.584;2022-10-19T14:51:35;102484.19;;;21.34;57.11
69749;BME280;57019;52.354;6.584;2022-10-19T14:59:20;102475.75;;;21.30;56.43
69749;BME280;57019;52.354;6.584;2022-10-19T15:01:49;102479.00;;;21.42;56.06
69749;BME280;57019;52.354;6.584;2022-10-19T15:04:22;102472.31;;;21.48;55.89
69749;BME280;57019;52.354;6.584;2022-10-19T15:06:49;102471.72;;;21.54;55.72
69749;BME280;57019;52.354;6.584;2022-10-19T15:09:25;102471.44;;;21.57;56.58
69749;BME280;57019;52.354;6.584;2022-10-19T15:11:52;102474.44;;;21.62;56.48
69749;BME280;57019;52.354;6.584;2022-10-19T15:14:21;102475.19;;;21.55;56.81
69749;BME280;57019;52.354;6.584;2022-10-19T15:16:53;102469.38;;;21.51;56.96
69749;BME280;57019;52.354;6.584;2022-10-19T15:19:32;102475.59;;;21.50;57.11
69749;BME280;57019;52.354;6.584;2022-10-19T15:22:16;102464.84;;;21.53;57.29